May 26, 2018 1:42 AM EDT
Weather Information
Wind Direction
  ---
Wind Speed
  00 kt (0 mph)
Wind Gust
  00 kt (0 mph)
Altimeter
29.90 in
Visibility
10 SM
Temperature
21° C
70° F
Dewpoint
18° C
64° F
Humidity
83%
Sky Condition
Clear
VFR

METAR KIMS 260542Z AUTO 00000KT 10SM CLR 21/18 A2990 RMK AO1

FAA Disclaimer: The data displayed is for advisory purposes only and is not to be used for flight planning or operations.